地図

経路データ

SID SEASON NUMBER BASIN SUBBASIN NAME ISO_TIME NATURE LAT LON WMO_WIND WMO_PRES WMO_AGENCY TRACK_TYPE DIST2LAND LANDFALL IFLAG USA_AGENCY USA_ATCF_ID USA_LAT USA_LON USA_RECORD USA_STATUS USA_WIND USA_PRES USA_SSHS USA_R34_NE USA_R34_SE USA_R34_SW USA_R34_NW USA_R50_NE USA_R50_SE USA_R50_SW USA_R50_NW USA_R64_NE USA_R64_SE USA_R64_SW USA_R64_NW USA_POCI USA_ROCI USA_RMW USA_EYE TOKYO_LAT TOKYO_LON TOKYO_GRADE TOKYO_WIND TOKYO_PRES TOKYO_R50_DIR TOKYO_R50_LONG TOKYO_R50_SHORT TOKYO_R30_DIR TOKYO_R30_LONG TOKYO_R30_SHORT TOKYO_LAND CMA_LAT CMA_LON CMA_CAT CMA_WIND CMA_PRES HKO_LAT HKO_LON HKO_CAT HKO_WIND HKO_PRES NEWDELHI_LAT NEWDELHI_LON NEWDELHI_GRADE NEWDELHI_WIND NEWDELHI_PRES NEWDELHI_CI NEWDELHI_DP NEWDELHI_POCI REUNION_LAT REUNION_LON REUNION_TYPE REUNION_WIND REUNION_PRES REUNION_TNUM REUNION_CI REUNION_RMW REUNION_R34_NE REUNION_R34_SE REUNION_R34_SW REUNION_R34_NW REUNION_R50_NE REUNION_R50_SE REUNION_R50_SW REUNION_R50_NW REUNION_R64_NE REUNION_R64_SE REUNION_R64_SW REUNION_R64_NW BOM_LAT BOM_LON BOM_TYPE BOM_WIND BOM_PRES BOM_TNUM BOM_CI BOM_RMW BOM_R34_NE BOM_R34_SE BOM_R34_SW BOM_R34_NW BOM_R50_NE BOM_R50_SE BOM_R50_SW BOM_R50_NW BOM_R64_NE BOM_R64_SE BOM_R64_SW BOM_R64_NW BOM_ROCI BOM_POCI BOM_EYE BOM_POS_METHOD BOM_PRES_METHOD NADI_LAT NADI_LON NADI_CAT NADI_WIND NADI_PRES WELLINGTON_LAT WELLINGTON_LON WELLINGTON_WIND WELLINGTON_PRES DS824_LAT DS824_LON DS824_STAGE DS824_WIND DS824_PRES TD9636_LAT TD9636_LON TD9636_STAGE TD9636_WIND TD9636_PRES TD9635_LAT TD9635_LON TD9635_WIND TD9635_PRES TD9635_ROCI NEUMANN_LAT NEUMANN_LON NEUMANN_CLASS NEUMANN_WIND NEUMANN_PRES MLC_LAT MLC_LON MLC_CLASS MLC_WIND MLC_PRES USA_GUST BOM_GUST BOM_GUST_PER REUNION_GUST REUNION_GUST_PER USA_SEAHGT USA_SEARAD_NE USA_SEARAD_SE USA_SEARAD_SW USA_SEARAD_NW STORM_SPEED STORM_DIR
1975360N10127 1975 148 WP MM NOT_NAMED 1975-12-26 00:00:00 TS 9.80000 127.400 main 147 141 O________OOO__ jtwc_wp WP241975 9.80000 127.400 25 -1 9.80000 127.400 TC 25 9.80000 127.400 1 25 9.80000 127.400 25 1008 120 12 325
1975360N10127 1975 148 WP MM NOT_NAMED 1975-12-26 03:00:00 TS 10.2994 127.049 main 141 100 P________PPP__ WP241975 10.3001 127.050 25 -1 10.3001 127.050 TC 25 10.2973 127.046 1 25 10.3001 127.050 25 1007 150 12 325
1975360N10127 1975 148 WP MM NOT_NAMED 1975-12-26 06:00:00 TS 10.7989 126.698 main 100 69 O________OPO__ jtwc_wp WP241975 10.8000 126.700 25 -1 10.8000 126.700 TC 25 10.7956 126.693 1 25 10.8000 126.700 25 1007 180 12 325
1975360N10127 1975 148 WP MM NOT_NAMED 1975-12-26 09:00:00 TS 11.2990 126.348 main 64 54 P________PPP__ WP241975 11.3000 126.350 25 -1 11.3000 126.350 TC 25 11.2960 126.344 1 25 11.3000 126.350 25 1006 210 12 326
1975360N10127 1975 148 WP MM NOT_NAMED 1975-12-26 12:00:00 TS 11.8000 126.000 main 55 21 O________OOO__ jtwc_wp WP241975 11.8000 126.000 25 -1 11.8000 126.000 TC 25 11.8000 126.000 1 25 11.8000 126.000 25 1006 240 12 326
1975360N10127 1975 148 WP MM NOT_NAMED 1975-12-26 15:00:00 TS 12.3123 125.658 main 24 15 P________PPP__ WP241975 12.3149 125.657 25 -1 12.3149 125.657 TC 25 12.3045 125.660 1 26 12.3149 125.657 25 1005 240 12 326
1975360N10127 1975 148 WP MM NOT_NAMED 1975-12-26 18:00:00 TS 12.7973 125.302 main 35 35 O________OPO__ jtwc_wp WP241975 12.8000 125.300 25 -1 12.8000 125.300 TC 25 12.7893 125.310 1 27 12.8000 125.300 25 1005 240 12 322
1975360N10127 1975 148 WP MM NOT_NAMED 1975-12-26 21:00:00 TS 13.2354 124.924 main 77 15 P________PPP__ WP241975 13.2374 124.922 27 -1 13.2374 124.922 TC 27 13.2294 124.929 1 28 13.2374 124.922 27 1004 240 11 316
1975360N10127 1975 148 WP MM NOT_NAMED 1975-12-27 00:00:00 TS 13.6000 124.500 main 15 0 O________OOO__ jtwc_wp WP241975 13.6000 124.500 30 -1 13.6000 124.500 TC 30 13.6000 124.500 1 30 13.6000 124.500 30 1004 240 11 306
1975360N10127 1975 148 WP MM NOT_NAMED 1975-12-27 03:00:00 TS 13.8908 124.010 main 10 10 P________PPP__ WP241975 13.8874 124.030 30 -1 13.8874 124.030 TC 30 13.9010 123.952 1 30 13.8874 124.030 30 1004 240 11 297
1975360N10127 1975 148 WP MM NOT_NAMED 1975-12-27 06:00:00 TS 14.1071 123.466 main 22 11 O________OPO__ jtwc_wp WP241975 14.1000 123.500 30 -1 14.1000 123.500 TC 30 14.1286 123.363 1 30 14.1000 123.500 30 1004 240 12 290
1975360N10127 1975 148 WP MM NOT_NAMED 1975-12-27 09:00:00 TS 14.3056 122.856 main 11 11 P________PPP__ WP241975 14.3102 122.878 30 -1 14.3102 122.878 TC 30 14.2917 122.792 1 30 14.3102 122.878 30 1004 240 12 285
1975360N10127 1975 148 WP MM NOT_NAMED 1975-12-27 12:00:00 TS 14.4000 122.300 main 24 21 O________OOO__ jtwc_wp WP241975 14.4000 122.300 30 -1 14.4000 122.300 TC 30 14.4000 122.300 1 30 14.4000 122.300 30 1004 240 10 269
1975360N10127 1975 148 WP MM NOT_NAMED 1975-12-27 15:00:00 TS 14.2963 121.865 main 21 0 P________PPP__ WP241975 14.2423 121.882 30 -1 14.2423 121.882 TC 30 14.4581 121.813 1 28 14.2423 121.882 30 1004 270 7 254
1975360N10127 1975 148 WP MM NOT_NAMED 1975-12-27 18:00:00 TS 14.1927 121.558 main 0 0 O________OPO__ jtwc_wp WP241975 14.1000 121.600 30 -1 14.1000 121.600 TC 30 14.4709 121.432 1 27 14.1000 121.600 30 1005 300 5 271
1975360N10127 1975 148 WP MM NOT_NAMED 1975-12-27 21:00:00 TS 14.3095 121.318 main 0 0 P________PPP__ WP241975 14.2549 121.345 27 -1 14.2549 121.345 TC 27 14.4732 121.236 1 26 14.2549 121.345 27 1005 300 4 321
1975360N10127 1975 148 WP MM NOT_NAMED 1975-12-28 00:00:00 TS 14.5000 121.300 main 0 0 O________OOO__ jtwc_wp WP241975 14.5000 121.300 25 -1 14.5000 121.300 TC 25 14.5000 121.300 1 25 14.5000 121.300 25 1006 300 4 33
1975360N10127 1975 148 WP MM NOT_NAMED 1975-12-28 03:00:00 TS 14.6426 121.543 main 0 0 P________PPP__ WP241975 14.6644 121.478 27 -1 14.6644 121.478 TC 27 14.5775 121.737 1 26 14.6644 121.478 27 1005 300 8 71
1975360N10127 1975 148 WP MM NOT_NAMED 1975-12-28 06:00:00 TS 14.7713 122.106 main 44 44 O________OPO__ jtwc_wp WP241975 14.8000 122.000 30 -1 14.8000 122.000 TC 30 14.6851 122.425 1 27 14.8000 122.000 30 1004 300 15 81
1975360N10127 1975 148 WP MM NOT_NAMED 1975-12-28 09:00:00 TS 14.8710 123.039 main 79 79 P________PPP__ WP241975 14.8864 122.978 30 -1 14.8864 122.978 TC 30 14.8247 123.225 1 28 14.8864 122.978 30 1003 270 18 83
1975360N10127 1975 148 WP MM NOT_NAMED 1975-12-28 12:00:00 TS 15.0000 124.000 main 112 111 O________OOO__ jtwc_wp WP241975 15.0000 124.000 30 -1 15.0000 124.000 TC 30 15.0000 124.000 1 30 15.0000 124.000 30 1002 240 15 76
1975360N10127 1975 148 WP MM NOT_NAMED 1975-12-28 15:00:00 TS 15.2223 124.527 main 136 136 P________PPP__ WP241975 15.2267 124.575 30 -1 15.2267 124.575 TC 30 15.2089 124.382 1 30 15.2267 124.575 30 1002 240 10 62
1975360N10127 1975 148 WP MM NOT_NAMED 1975-12-28 18:00:00 TS 15.4885 124.935 main 179 179 O________OPO__ jtwc_wp WP241975 15.5000 125.000 30 -1 15.5000 125.000 TC 30 15.4540 124.742 1 30 15.5000 125.000 30 1003 240 10 57
1975360N10127 1975 148 WP MM NOT_NAMED 1975-12-28 21:00:00 TS 15.7421 125.349 main 218 218 P________PPP__ WP241975 15.7487 125.388 30 -1 15.7487 125.388 TC 30 15.7224 125.230 1 30 15.7487 125.388 30 1003 270 11 63
1975360N10127 1975 148 WP MM NOT_NAMED 1975-12-29 00:00:00 TS 16.0000 126.000 main 288 288 O________OOO__ jtwc_wp WP241975 16.0000 126.000 30 -1 16.0000 126.000 TC 30 16.0000 126.000 1 30 16.0000 126.000 30 1004 300 18 73
1975360N10127 1975 148 WP MM NOT_NAMED 1975-12-29 03:00:00 TS 16.2630 127.132 main 395 395 P________PPP__ WP241975 16.2489 127.048 30 -1 16.2489 127.048 TC 30 16.3052 127.382 1 30 16.2489 127.048 30 1004 300 26 78
1975360N10127 1975 148 WP MM NOT_NAMED 1975-12-29 06:00:00 TS 16.5245 128.634 main 536 536 O________OPO__ jtwc_wp WP241975 16.5000 128.500 30 -1 16.5000 128.500 TC 30 16.5980 129.035 1 30 16.5000 128.500 30 1004 300 33 81
1975360N10127 1975 148 WP MM NOT_NAMED 1975-12-29 09:00:00 TS 16.8038 130.509 main 730 730 P________PPP__ WP241975 16.7917 130.439 30 -1 16.7917 130.439 TC 30 16.8400 130.721 1 30 16.7917 130.439 30 1004 330 35 82
1975360N10127 1975 148 WP MM NOT_NAMED 1975-12-29 12:00:00 TS 17.0000 132.200 main 899 899 O________OOO__ jtwc_wp WP241975 17.0000 132.200 30 -1 17.0000 132.200 TC 30 17.0000 132.200 1 30 17.0000 132.200 30 1004 360 24 84
1975360N10127 1975 148 WP MM NOT_NAMED 1975-12-29 15:00:00 TS 17.0415 133.027 main 969 969 P________PPP__ WP241975 17.0418 133.016 30 -1 17.0418 133.016 TC 30 17.0405 133.061 1 28 17.0418 133.016 30 1004 360 13 90
1975360N10127 1975 148 WP MM NOT_NAMED 1975-12-29 18:00:00 TS 17.0031 133.550 main 1014 1014 O________OPO__ jtwc_wp WP241975 17.0000 133.500 30 -1 17.0000 133.500 TC 30 17.0126 133.700 1 27 17.0000 133.500 30 1005 360 11 95
1975360N10127 1975 148 WP MM NOT_NAMED 1975-12-29 21:00:00 TS 16.9501 134.192 main 1079 1074 P________PPP__ WP241975 16.9489 134.160 27 -1 16.9489 134.160 TC 27 16.9540 134.289 1 26 16.9489 134.160 27 1005 360 14 94
1975360N10127 1975 148 WP MM NOT_NAMED 1975-12-30 00:00:00 TS 16.9000 135.000 main 1149 1149 O________OOO__ jtwc_wp WP241975 16.9000 135.000 25 -1 16.9000 135.000 TC 25 16.9000 135.000 1 25 16.9000 135.000 25 1006 360 19 92
1975360N10127 1975 148 WP MM NOT_NAMED 1975-12-30 03:00:00 TS 16.8888 136.128 main 1256 1256 P________PPP__ WP241975 16.8931 136.183 25 -1 16.8931 136.183 TC 25 16.8762 135.966 1 25 16.8931 136.183 25 1006 300 23 90
1975360N10127 1975 148 WP MM NOT_NAMED 1975-12-30 06:00:00 TS 16.8941 137.414 main 1384 1384 O________OPO__ jtwc_wp WP241975 16.9000 137.500 25 -1 16.9000 137.500 TC 25 16.8766 137.154 1 25 16.9000 137.500 25 1007 240 24 90
1975360N10127 1975 148 WP MM NOT_NAMED 1975-12-30 09:00:00 TS 16.8994 138.674 main 1514 1514 P________PPP__ WP241975 16.9031 138.735 25 -1 16.9031 138.735 TC 25 16.8883 138.491 1 25 16.9031 138.735 25 1007 210 24 90
1975360N10127 1975 148 WP MM NOT_NAMED 1975-12-30 12:00:00 TS 16.9000 139.900 main 1636 O________OOO__ jtwc_wp WP241975 16.9000 139.900 25 -1 16.9000 139.900 TC 25 16.9000 139.900 1 25 16.9000 139.900 25 1008 180 23 90

デジタル台風データ・検索

IBTrACS Databaseについて

本データベースは、米国NOAAが公開する1842年以降の世界の熱帯低気圧のベストトラックデータアーカイブInternational Best Track Archive for Climate Stewardship (IBTrACS)を、ウェブで閲覧しやすい形式に変換したものです。

最終更新日:2021-10-25